TFM - Tactical Decision Aid
ID: Runway Winds: CIG/VIS Threshold:

KGRB - Green Bay/Straubel I, WI, US

Updated at: 0410 UTC 30 Jun 2022
Latest TAF at: 2329 UTC 29 Jun 2022

TAF Board

Time0353Z 30/05Z 30/06Z 30/07Z 30/08Z 30/09Z 30/10Z 30/11Z 30/12Z 30/13Z 30/14Z 30/15Z 30/16Z 30/17Z>>
Type OBS PRVL PRVL PRVL PRVL PRVL PRVL PRVL PRVL PRVL PRVL PRVL PRVL PRVL
VIS 10 >6 >6 >6 >6 >6 >6 >6 >6 >6 >6 >6 >6 >6
CIG -- -- -- -- -- -- -- -- -- -- -- -- 200 200
Cover CLR SCT SCT SCT SCT SCT SCT SCT SCT SCT SCT SCT BKN BKN
FltCat VFR VFR VFR VFR VFR VFR VFR VFR VFR VFR VFR VFR VFR VFR
WX -- -- -- -- -- -- -- -- -- -- -- -- -- --
WDir 140 140 180 180 180 180 210 210 210 210 210 210 230 230
WSpd 7 7 9 9 9 9 13 13 13 13 13 13 16 16
WGst -- -- 17 17 17 17 25 25 25 25 25 25 27 27
WSHgt -- -- 2000 2000 2000 2000 2000 2000 2000 2000 2000 2000 -- --
WSDir -- -- 230 230 230 230 240 240 240 240 240 240 -- --
WSSpd -- -- 45 45 45 45 45 45 45 45 45 45 -- --
R06/24
XWnd -7 -7 -8 -8 -8 -8 -7 -7 -7 -7 -7 -7 -3 -3
XGst -- -- -15 -15 -15 -15 -13 -13 -13 -13 -13 -13 -5 -5
HWnd 1 1 -5 -5 -5 -5 -11 -11 -11 -11 -11 -11 -16 -16
HGst -- -- -9 -9 -9 -9 -22 -22 -22 -22 -22 -22 -27 -27
R18/36
XWnd 4 4 0 0 0 0 -7 -7 -7 -7 -7 -7 -12 -12
XGst -- -- 0 0 0 0 -13 -13 -13 -13 -13 -13 -21 -21
HWnd 5 5 9 9 9 9 11 11 11 11 11 11 10 10
HGst -- -- 17 17 17 17 22 22 22 22 22 22 17 17

TDA Impact Legend

  None Marginal Slight Moderate High
Visibility (sm) >5 2.9≤X≤5 0.9≤X<2.9 <0.9
Ceiling (100 ft) >30 9.9≤X≤30 4.9≤X<9.9 <4.9
Wind Speed (kt) <15 15≤X<25 25≤X<30 ≥30
Wind Gust (kt) <15 15≤X<25 25≤X<35 ≥35
Weather No Wx Reported VCTS -TS,-FZRA TS,FZRA +TS,+FZRA
TAF
KGRB 292329Z 3000/3024 14007KT P6SM SCT250
  FM300600 18009G17KT P6SM SCT200 WS020/23045KT
  FM301000 21013G25KT P6SM SCT250 WS020/24045KT
  FM301600 23016G27KT P6SM BKN200
  FM302200 23012G24KT P6SM -SHRA BKN050


METAR
KGRB 300353Z 14007KT 10SM CLR 18/14 A3006 RMK AO2 SLP179 T01830144
KGRB 300253Z 14008KT 10SM CLR 19/14 A3008 RMK AO2 SLP185 T01890144 55011
KGRB 300153Z 12005KT 10SM CLR 20/14 A3008 RMK AO2 SLP183 T02000144
KGRB 300053Z 14009KT 10SM CLR 22/15 A3010 RMK AO2 SLP189 T02220150

Radar Display
Forecast Discussion